Terminal Aerodrome Forecast
Issued by NWS

Home | Current Version | Previous Version | Text Only | Print | Product List | Glossary On
Versions: 1 2 3 4 5 6 7 8 9 10 11 12 13 14 15 16 17 18 19 20 21 22 23 24 25 26 27
213
FTUS43 KIND 202328
TAFLAF
TAF
KLAF 202328Z 2100/2124 15004KT 6SM BR OVC015
     FM210200 14004KT 5SM BR VCSH OVC010
     FM210400 14005KT 4SM BR VCSH OVC006
     FM210900 19007KT 5SM BR OVC006
     FM211800 19010G19KT P6SM BKN035
      AMD LTD TO CLD VIS AND WIND 2102/2114=

USA.gov is the U.S. government's official web portal to all federal, state and local government web resources and services.